Time;durP1;ratioP1;P1;durP2;ratioP2;P2;SDS_P1;SDS_P2;PMS_P1;PMS_P2;Temp;Humidity;BMP_temperature;BMP_pressure;BME280_temperature;BME280_humidity;BME280_pressure;Samples;Min_cycle;Max_cycle;Signal;HPM_P1;HPM_P2
2021/12/15 00:00:40;;;;;;;43.53;24.63;;;10.20;99.90;;;;;;4994052;28;20203;-88
2021/12/15 00:03:08;;;;;;;56.33;25.00;;;10.20;99.90;;;;;;4993996;28;20211;-89
2021/12/15 00:05:35;;;;;;;45.67;22.97;;;10.20;99.90;;;;;;4993721;28;20208;-90
2021/12/15 00:08:07;;;;;;;52.47;24.13;;;10.20;99.90;;;;;;4993490;28;20206;-89
2021/12/15 00:10:34;;;;;;;45.37;21.97;;;10.20;99.90;;;;;;4993686;28;20207;-90
2021/12/15 00:13:03;;;;;;;48.00;24.47;;;10.20;99.90;;;;;;4993767;28;20211;-90
2021/12/15 00:15:30;;;;;;;47.60;24.37;;;10.20;99.90;;;;;;4992609;28;20208;-89
2021/12/15 00:17:58;;;;;;;50.10;24.97;;;10.20;99.90;;;;;;4993442;28;20238;-87
2021/12/15 00:20:26;;;;;;;50.87;24.50;;;10.20;99.90;;;;;;4993338;28;20207;-89
2021/12/15 00:22:53;;;;;;;49.33;24.67;;;10.20;99.90;;;;;;4993249;28;20216;-91
2021/12/15 00:25:22;;;;;;;55.87;25.30;;;10.20;99.90;;;;;;4993213;28;20208;-89
2021/12/15 00:27:49;;;;;;;42.47;23.47;;;10.20;99.90;;;;;;4991055;28;20203;-88
2021/12/15 00:30:19;;;;;;;47.13;24.50;;;10.20;99.90;;;;;;4973781;28;20232;-90
2021/12/15 00:32:47;;;;;;;49.47;24.63;;;10.20;99.90;;;;;;4973398;28;20235;-89
2021/12/15 00:35:14;;;;;;;50.17;25.00;;;10.20;99.90;;;;;;4973512;28;20221;-91
2021/12/15 00:37:41;;;;;;;43.13;24.00;;;10.10;99.90;;;;;;4973579;28;20789;-90
2021/12/15 00:40:12;;;;;;;42.67;24.13;;;10.10;99.90;;;;;;4973495;28;20201;-88
2021/12/15 00:42:39;;;;;;;49.03;24.47;;;10.10;99.90;;;;;;4974082;28;20192;-88
2021/12/15 00:45:07;;;;;;;53.63;25.80;;;10.20;99.90;;;;;;4988331;28;20219;-90
2021/12/15 00:47:36;;;;;;;52.47;25.17;;;10.10;99.90;;;;;;4993022;28;20251;-88
2021/12/15 00:50:06;;;;;;;55.17;27.10;;;10.10;99.90;;;;;;4989439;28;20216;-87
2021/12/15 00:52:33;;;;;;;51.93;27.53;;;10.10;99.90;;;;;;4995757;28;20577;-85
2021/12/15 00:55:00;;;;;;;48.53;26.23;;;10.10;99.90;;;;;;4995179;28;20203;-90
2021/12/15 00:57:27;;;;;;;53.53;27.00;;;10.10;99.90;;;;;;4995042;28;20231;-87
2021/12/15 00:59:54;;;;;;;44.47;24.83;;;10.10;99.90;;;;;;4996394;28;20220;-87
2021/12/15 01:02:21;;;;;;;46.67;24.83;;;10.10;99.90;;;;;;4993097;28;20226;-91
2021/12/15 01:04:50;;;;;;;48.83;23.87;;;10.10;99.90;;;;;;4985006;28;20883;-89
2021/12/15 01:07:17;;;;;;;53.83;25.70;;;10.10;99.90;;;;;;4974056;28;20295;-91
2021/12/15 01:09:48;;;;;;;59.20;25.40;;;10.10;99.90;;;;;;4974025;28;20196;-94
2021/12/15 01:12:26;;;;;;;44.43;23.33;;;10.10;99.90;;;;;;4974304;28;20200;-95
2021/12/15 01:20:35;;;;;;;48.30;24.90;;;10.10;99.90;;;;;;4978409;28;20238;-93
2021/12/15 01:23:07;;;;;;;53.83;24.33;;;10.10;99.90;;;;;;4993565;28;20200;-88
2021/12/15 01:25:36;;;;;;;55.37;23.73;;;10.10;99.90;;;;;;4993482;28;20211;-90
2021/12/15 01:28:04;;;;;;;54.70;23.57;;;10.10;99.90;;;;;;4993083;28;20219;-91
2021/12/15 01:30:34;;;;;;;48.10;24.03;;;10.10;99.90;;;;;;4993039;28;20231;-90
2021/12/15 01:33:03;;;;;;;49.37;22.90;;;10.10;99.90;;;;;;4992533;28;20204;-91
2021/12/15 01:35:33;;;;;;;45.07;23.23;;;10.10;99.90;;;;;;5006405;23;20207;-88
2021/12/15 01:38:00;;;;;;;50.80;22.80;;;10.10;99.90;;;;;;5072257;28;20208;-91
2021/12/15 01:40:34;;;;;;;56.77;26.00;;;10.20;99.90;;;;;;5072129;28;20201;-91
2021/12/15 01:43:02;;;;;;;53.53;24.97;;;10.10;99.90;;;;;;5072565;28;20201;-92
2021/12/15 01:48:14;;;;;;;52.93;24.40;;;10.10;99.90;;;;;;5051987;28;20231;-90
2021/12/15 01:50:43;;;;;;;45.07;24.17;;;10.10;99.90;;;;;;5051910;28;20197;-89
2021/12/15 01:53:12;;;;;;;52.37;23.63;;;10.10;99.90;;;;;;5051670;28;20209;-91
2021/12/15 01:55:38;;;;;;;51.77;26.07;;;10.10;99.90;;;;;;5051637;28;20204;-88
2021/12/15 01:58:06;;;;;;;53.63;24.83;;;10.10;99.90;;;;;;5051641;28;20209;-88
2021/12/15 02:00:38;;;;;;;47.47;23.03;;;10.10;99.90;;;;;;5051765;28;20198;-90
2021/12/15 02:03:05;;;;;;;53.77;23.67;;;10.10;99.90;;;;;;5052257;28;20209;-89
2021/12/15 02:05:33;;;;;;;49.23;24.20;;;10.10;99.90;;;;;;5051125;28;20205;-85
2021/12/15 02:08:02;;;;;;;52.87;24.13;;;10.10;99.90;;;;;;5052160;28;20224;-88
2021/12/15 02:10:32;;;;;;;50.53;23.60;;;10.10;99.90;;;;;;5051574;28;20212;-89
2021/12/15 02:13:01;;;;;;;54.53;23.63;;;10.20;99.90;;;;;;5052114;28;20671;-87
2021/12/15 02:15:31;;;;;;;41.67;22.53;;;10.20;99.90;;;;;;5052502;28;20209;-88
2021/12/15 02:17:58;;;;;;;44.90;22.70;;;10.10;99.90;;;;;;5051688;28;20609;-88
2021/12/15 02:20:30;;;;;;;52.20;23.60;;;10.10;99.90;;;;;;5049592;28;20194;-90
2021/12/15 02:22:57;;;;;;;54.50;23.67;;;10.20;99.90;;;;;;5069666;28;20209;-87
2021/12/15 02:25:24;;;;;;;50.27;23.90;;;10.10;99.90;;;;;;5073674;28;20284;-86
2021/12/15 02:27:51;;;;;;;47.07;22.63;;;10.10;99.90;;;;;;5071268;28;20213;-88
2021/12/15 02:30:31;;;;;;;52.83;23.20;;;10.10;99.90;;;;;;5072066;28;20209;-90
2021/12/15 02:33:11;;;;;;;48.40;21.97;;;10.20;99.90;;;;;;5056853;28;20217;-93
2021/12/15 02:38:28;;;;;;;43.70;21.83;;;10.20;99.90;;;;;;5021195;28;20759;-90
2021/12/15 02:41:01;;;;;;;47.57;21.00;;;10.20;99.90;;;;;;5052332;28;20252;-89
2021/12/15 02:43:28;;;;;;;43.27;21.30;;;10.20;99.90;;;;;;5051834;28;20578;-92
2021/12/15 02:45:55;;;;;;;39.20;20.50;;;10.20;99.90;;;;;;5069644;28;20281;-90
2021/12/15 02:48:22;;;;;;;48.73;20.70;;;10.20;99.90;;;;;;5071286;28;20189;-90
2021/12/15 02:50:50;;;;;;;49.83;23.30;;;10.20;99.90;;;;;;5071341;28;20208;-93
2021/12/15 02:53:17;;;;;;;46.40;21.73;;;10.20;99.90;;;;;;5052077;28;20202;-88
2021/12/15 02:55:45;;;;;;;43.40;22.33;;;10.20;99.90;;;;;;5050895;28;20234;-92
2021/12/15 02:58:12;;;;;;;45.13;21.87;;;10.20;99.90;;;;;;5051935;28;20217;-91
2021/12/15 03:00:49;;;;;;;42.80;22.30;;;10.20;99.90;;;;;;5053412;28;20210;-92
2021/12/15 03:06:07;;;;;;;45.57;22.37;;;10.20;99.90;;;;;;5055891;28;20243;-91
2021/12/15 03:08:52;;;;;;;43.40;21.77;;;10.20;99.90;;;;;;5055815;28;20454;-92
2021/12/15 03:16:51;;;;;;;42.43;21.27;;;10.20;99.90;;;;;;5056134;28;20570;-87
2021/12/15 03:19:18;;;;;;;46.90;23.60;;;10.20;99.90;;;;;;5055308;28;20229;-93
2021/12/15 03:21:47;;;;;;;42.53;21.53;;;10.20;99.90;;;;;;5055155;28;20209;-94
2021/12/15 03:24:18;;;;;;;46.77;22.90;;;10.10;99.90;;;;;;5055162;28;20232;-95
2021/12/15 03:26:53;;;;;;;44.57;23.83;;;10.20;99.90;;;;;;5054922;28;20314;-95
2021/12/15 03:35:04;;;;;;;46.40;25.30;;;10.20;99.90;;;;;;5063970;28;20211;-88
2021/12/15 03:37:36;;;;;;;41.93;21.77;;;10.20;99.90;;;;;;5074182;28;20237;-93
2021/12/15 03:40:08;;;;;;;46.87;22.50;;;10.30;99.90;;;;;;5075482;28;20229;-93
2021/12/15 03:42:39;;;;;;;53.53;25.97;;;10.20;99.90;;;;;;5075813;28;20213;-93
2021/12/15 03:45:10;;;;;;;52.30;26.23;;;10.30;99.90;;;;;;5076109;28;20217;-94
2021/12/15 03:47:41;;;;;;;49.67;25.30;;;10.30;99.90;;;;;;5075121;28;20271;-89
2021/12/15 03:50:11;;;;;;;44.67;24.53;;;10.30;99.90;;;;;;5084121;28;20202;-92
2021/12/15 03:52:40;;;;;;;57.30;25.43;;;10.30;99.90;;;;;;5084291;28;20197;-88
2021/12/15 03:55:09;;;;;;;50.37;25.30;;;10.30;99.90;;;;;;5057704;28;20205;-95
2021/12/15 03:57:36;;;;;;;46.53;25.63;;;10.30;99.90;;;;;;5055759;28;20201;-93
2021/12/15 04:00:06;;;;;;;51.90;24.47;;;10.30;99.90;;;;;;5074517;28;20233;-94
2021/12/15 04:02:34;;;;;;;52.47;24.57;;;10.30;99.90;;;;;;5063569;28;20612;-93
2021/12/15 04:05:01;;;;;;;51.47;24.23;;;10.30;99.90;;;;;;5054605;28;20214;-89
2021/12/15 04:07:28;;;;;;;48.80;24.03;;;10.30;99.90;;;;;;5054347;28;20201;-93
2021/12/15 04:09:56;;;;;;;38.80;21.00;;;10.30;99.90;;;;;;5054330;28;20228;-94
2021/12/15 04:12:24;;;;;;;46.87;21.70;;;10.30;99.90;;;;;;5053731;28;20194;-95
2021/12/15 04:15:06;;;;;;;50.87;21.20;;;10.30;99.90;;;;;;5055443;28;20323;-93
2021/12/15 04:17:34;;;;;;;39.93;19.40;;;10.40;99.90;;;;;;5054904;28;20507;-93
2021/12/15 04:20:05;;;;;;;46.30;20.00;;;10.40;99.90;;;;;;5054154;28;20467;-92
2021/12/15 04:22:32;;;;;;;43.10;18.60;;;10.40;99.90;;;;;;5054668;28;20884;-91
2021/12/15 04:25:00;;;;;;;43.93;17.53;;;10.40;99.90;;;;;;5054429;28;20198;-91
2021/12/15 04:27:28;;;;;;;32.03;16.33;;;10.40;99.90;;;;;;5054115;28;20210;-93
2021/12/15 04:29:55;;;;;;;38.17;15.77;;;10.50;99.90;;;;;;5053963;28;20214;-88
2021/12/15 04:32:29;;;;;;;37.97;15.67;;;10.50;99.90;;;;;;5054088;28;20198;-94
2021/12/15 04:34:56;;;;;;;36.30;14.67;;;10.50;99.90;;;;;;5062296;28;20193;-93
2021/12/15 04:37:23;;;;;;;37.73;15.57;;;10.50;99.90;;;;;;5073640;28;20264;-89
2021/12/15 04:39:50;;;;;;;41.97;16.77;;;10.50;99.90;;;;;;5067006;28;20217;-94
2021/12/15 04:42:20;;;;;;;39.87;15.87;;;10.50;99.90;;;;;;5053914;28;20212;-92
2021/12/15 04:44:49;;;;;;;33.40;16.63;;;10.50;99.90;;;;;;5054048;28;20206;-91
2021/12/15 04:47:16;;;;;;;42.10;15.43;;;10.50;99.90;;;;;;5067768;28;20311;-94
2021/12/15 04:49:47;;;;;;;31.33;14.60;;;10.50;99.90;;;;;;5073738;28;20208;-93
2021/12/15 04:52:16;;;;;;;35.20;14.30;;;10.50;99.90;;;;;;5070149;28;20201;-90
2021/12/15 04:54:43;;;;;;;31.27;14.20;;;10.50;99.90;;;;;;5055350;28;20206;-87
2021/12/15 04:57:10;;;;;;;32.27;14.27;;;10.60;99.90;;;;;;5053803;28;20213;-90
2021/12/15 04:59:39;;;;;;;32.17;14.47;;;10.50;99.90;;;;;;5036420;23;20643;-88
2021/12/15 05:02:09;;;;;;;37.20;13.77;;;10.50;99.90;;;;;;5014181;28;20215;-92
2021/12/15 05:04:36;;;;;;;35.37;13.97;;;10.50;99.90;;;;;;5014034;28;20204;-90
2021/12/15 05:07:04;;;;;;;32.93;13.27;;;10.60;99.90;;;;;;5013516;28;20218;-88
2021/12/15 05:09:31;;;;;;;35.37;13.87;;;10.50;99.90;;;;;;5013419;28;20195;-90
2021/12/15 05:11:58;;;;;;;35.60;14.40;;;10.60;99.90;;;;;;4998500;28;20645;-89
2021/12/15 05:14:26;;;;;;;37.97;15.27;;;10.60;99.90;;;;;;4994055;28;20203;-89
2021/12/15 05:16:56;;;;;;;33.17;13.90;;;10.50;99.90;;;;;;4994519;28;20203;-94
2021/12/15 05:19:25;;;;;;;31.23;13.13;;;10.60;99.90;;;;;;5004260;28;20417;-90
2021/12/15 05:21:52;;;;;;;37.93;13.93;;;10.50;99.90;;;;;;4999998;28;20200;-89
2021/12/15 05:24:30;;;;;;;34.33;13.80;;;10.50;99.90;;;;;;5003350;28;20214;-88
2021/12/15 05:27:00;;;;;;;33.33;14.43;;;10.50;99.90;;;;;;5012506;28;20218;-95
2021/12/15 05:29:27;;;;;;;30.53;12.57;;;10.50;99.90;;;;;;5014436;28;20224;-95
2021/12/15 05:31:55;;;;;;;38.73;16.37;;;10.60;99.90;;;;;;5014166;28;20234;-91
2021/12/15 05:34:22;;;;;;;28.60;13.13;;;10.60;99.90;;;;;;5014933;28;20219;-90
2021/12/15 05:36:51;;;;;;;31.87;14.33;;;10.60;99.90;;;;;;5016807;28;20210;-87
2021/12/15 05:39:19;;;;;;;37.67;15.97;;;10.60;99.90;;;;;;5013014;28;20199;-90
2021/12/15 05:41:46;;;;;;;36.60;15.90;;;10.60;99.90;;;;;;5003693;28;20218;-88
2021/12/15 05:44:13;;;;;;;38.30;16.37;;;10.60;99.90;;;;;;4993254;28;20597;-88
2021/12/15 05:46:40;;;;;;;36.83;15.77;;;10.60;99.90;;;;;;4999234;28;20230;-87
2021/12/15 05:49:09;;;;;;;27.57;13.40;;;10.60;99.90;;;;;;5013127;28;20200;-94
2021/12/15 05:51:37;;;;;;;38.83;16.00;;;10.50;99.90;;;;;;5012860;28;20226;-94
2021/12/15 05:54:05;;;;;;;26.53;15.07;;;10.60;99.90;;;;;;5013352;28;20203;-89
2021/12/15 05:56:32;;;;;;;32.73;15.77;;;10.60;99.90;;;;;;4995026;28;20211;-89
2021/12/15 05:58:59;;;;;;;35.47;16.53;;;10.60;99.90;;;;;;4992885;28;20661;-88
2021/12/15 06:01:26;;;;;;;37.13;17.17;;;10.60;99.90;;;;;;4993245;28;20240;-90
2021/12/15 06:03:53;;;;;;;39.47;17.20;;;10.60;99.90;;;;;;4992922;28;20211;-89
2021/12/15 06:06:21;;;;;;;35.87;16.07;;;10.60;99.90;;;;;;4992778;28;20200;-85
2021/12/15 06:08:48;;;;;;;34.80;16.23;;;10.60;99.90;;;;;;4993520;28;20600;-88
2021/12/15 06:11:16;;;;;;;37.23;15.33;;;10.60;99.90;;;;;;4993312;28;20200;-88
2021/12/15 06:13:47;;;;;;;31.60;15.33;;;10.50;99.90;;;;;;4993058;28;20195;-88
2021/12/15 06:16:14;;;;;;;32.27;14.80;;;10.60;99.90;;;;;;4993164;28;20250;-88
2021/12/15 06:18:41;;;;;;;30.63;15.77;;;10.50;99.90;;;;;;4993574;28;20316;-87
2021/12/15 06:21:08;;;;;;;34.83;16.50;;;10.60;99.90;;;;;;4997107;28;20231;-91
2021/12/15 06:23:36;;;;;;;39.87;17.10;;;10.50;99.90;;;;;;5013219;28;20212;-88
2021/12/15 06:26:06;;;;;;;42.13;17.83;;;10.50;99.90;;;;;;5012666;28;20882;-92
2021/12/15 06:28:35;;;;;;;35.43;17.40;;;10.50;99.90;;;;;;5012154;28;20207;-88
2021/12/15 06:31:06;;;;;;;33.83;16.83;;;10.50;99.90;;;;;;5013076;28;20547;-92
2021/12/15 06:33:33;;;;;;;39.73;17.70;;;10.50;99.90;;;;;;5012831;28;20203;-93
2021/12/15 06:36:01;;;;;;;38.57;18.27;;;10.50;99.90;;;;;;5015541;28;20203;-90
2021/12/15 06:38:33;;;;;;;38.20;17.53;;;10.50;99.90;;;;;;5002599;28;20207;-89
2021/12/15 06:41:03;;;;;;;35.13;16.67;;;10.50;99.90;;;;;;4997617;28;20258;-91
2021/12/15 06:43:29;;;;;;;27.57;14.43;;;10.50;99.90;;;;;;4997539;28;20218;-92
2021/12/15 06:46:09;;;;;;;40.27;16.83;;;10.50;99.90;;;;;;4997443;28;20401;-89
2021/12/15 06:59:36;;;;;;;37.63;17.20;;;10.50;99.90;;;;;;5004425;28;21066;-94
2021/12/15 07:02:04;;;;;;;34.07;16.67;;;10.50;99.90;;;;;;5017343;28;20206;-90
2021/12/15 07:04:32;;;;;;;35.20;16.57;;;10.50;99.90;;;;;;5016548;28;20192;-94
2021/12/15 07:06:59;;;;;;;39.17;16.37;;;10.50;99.90;;;;;;4999023;28;20212;-93
2021/12/15 07:09:26;;;;;;;32.90;17.17;;;10.50;99.90;;;;;;4996211;28;20600;-94
2021/12/15 07:11:54;;;;;;;32.47;17.07;;;10.50;99.90;;;;;;5012294;28;20207;-94
2021/12/15 07:14:22;;;;;;;38.63;19.27;;;10.50;99.90;;;;;;5016240;28;20207;-89
2021/12/15 07:16:51;;;;;;;42.80;19.90;;;10.50;99.90;;;;;;5016426;28;20218;-92
2021/12/15 07:19:29;;;;;;;34.57;17.17;;;10.50;99.90;;;;;;5005012;28;20637;-90
2021/12/15 07:22:08;;;;;;;36.07;17.13;;;10.50;99.90;;;;;;4999666;28;20203;-89
2021/12/15 07:24:36;;;;;;;41.57;17.93;;;10.50;99.90;;;;;;5015720;28;20203;-92
2021/12/15 07:27:06;;;;;;;44.67;18.67;;;10.50;99.90;;;;;;5015836;28;20606;-93
2021/12/15 07:29:34;;;;;;;37.70;18.97;;;10.50;99.90;;;;;;5015297;28;20206;-90
2021/12/15 07:32:01;;;;;;;37.23;19.07;;;10.50;99.90;;;;;;5015616;28;20607;-94
2021/12/15 07:34:27;;;;;;;38.53;19.37;;;10.50;99.90;;;;;;5015603;28;20187;-93
2021/12/15 07:36:54;;;;;;;45.40;20.50;;;10.50;99.90;;;;;;5015409;28;20222;-93
2021/12/15 07:39:22;;;;;;;45.03;19.90;;;10.40;99.90;;;;;;5014839;28;20211;-93
2021/12/15 07:41:52;;;;;;;44.60;20.00;;;10.40;99.90;;;;;;5016532;28;20706;-94
2021/12/15 07:44:22;;;;;;;42.63;18.73;;;10.40;99.90;;;;;;5000244;28;20250;-89
2021/12/15 07:46:51;;;;;;;45.60;20.00;;;10.40;99.90;;;;;;4995177;28;20231;-90
2021/12/15 07:49:19;;;;;;;40.57;18.67;;;10.40;99.90;;;;;;4995654;28;20207;-94
2021/12/15 07:51:47;;;;;;;41.80;18.00;;;10.40;99.90;;;;;;4995442;28;20255;-93
2021/12/15 07:54:16;;;;;;;48.47;18.87;;;10.40;99.90;;;;;;4995955;28;20200;-94
2021/12/15 07:56:43;;;;;;;47.83;18.63;;;10.50;99.90;;;;;;5002346;28;20556;-93
2021/12/15 07:59:10;;;;;;;40.97;18.07;;;10.40;99.90;;;;;;5022008;28;20249;-92
2021/12/15 08:01:39;;;;;;;38.67;16.13;;;10.40;99.90;;;;;;5019162;28;20239;-92
2021/12/15 08:04:06;;;;;;;34.77;14.13;;;10.40;99.90;;;;;;5015394;28;20202;-93
2021/12/15 08:06:33;;;;;;;31.57;13.10;;;10.40;99.90;;;;;;5005171;28;20782;-87
2021/12/15 08:08:59;;;;;;;33.20;13.30;;;10.40;99.90;;;;;;4996526;28;20465;-89
2021/12/15 08:11:26;;;;;;;28.27;12.97;;;10.40;99.90;;;;;;4995369;28;20196;-93
2021/12/15 08:13:53;;;;;;;33.87;13.73;;;10.40;99.90;;;;;;4995774;28;20204;-87
2021/12/15 08:16:36;;;;;;;29.83;14.70;;;10.40;99.90;;;;;;4971508;28;20222;-90
2021/12/15 08:19:04;;;;;;;39.63;15.10;;;10.40;99.90;;;;;;5014773;28;20191;-88
2021/12/15 08:21:31;;;;;;;44.70;17.17;;;10.50;99.90;;;;;;5014182;28;20223;-90
2021/12/15 08:23:58;;;;;;;30.40;15.63;;;10.40;99.90;;;;;;5013892;28;20222;-89
2021/12/15 08:26:26;;;;;;;42.43;18.17;;;10.40;99.90;;;;;;5013815;28;20512;-87
2021/12/15 08:28:53;;;;;;;31.50;16.50;;;10.40;99.90;;;;;;5010260;28;20713;-86
2021/12/15 08:31:20;;;;;;;34.23;16.43;;;10.50;99.90;;;;;;5008026;28;20224;-89
2021/12/15 08:33:48;;;;;;;41.13;16.47;;;10.50;99.90;;;;;;4992111;28;20240;-89
2021/12/15 08:36:17;;;;;;;35.43;17.37;;;10.50;99.90;;;;;;5004002;28;20184;-89
2021/12/15 08:38:47;;;;;;;38.80;18.20;;;10.50;99.90;;;;;;5003925;28;20254;-93
2021/12/15 08:41:18;;;;;;;34.77;16.23;;;10.50;99.90;;;;;;4995708;28;20220;-91
2021/12/15 08:43:45;;;;;;;32.93;15.47;;;10.50;99.90;;;;;;4995719;28;20200;-91
2021/12/15 08:46:16;;;;;;;31.27;14.80;;;10.50;99.90;;;;;;4995722;28;20267;-91
2021/12/15 08:48:44;;;;;;;28.83;12.13;;;10.50;99.90;;;;;;4994475;28;20194;-91
2021/12/15 08:51:14;;;;;;;27.20;12.47;;;10.60;99.90;;;;;;4995038;28;20207;-92
2021/12/15 08:53:44;;;;;;;26.67;11.20;;;10.60;99.90;;;;;;5013620;28;20203;-88
2021/12/15 08:56:12;;;;;;;31.10;12.37;;;10.60;99.90;;;;;;5013884;28;20207;-90
2021/12/15 08:58:40;;;;;;;25.53;10.97;;;10.60;99.90;;;;;;4996152;28;20667;-89
2021/12/15 09:01:09;;;;;;;35.53;11.97;;;10.60;99.90;;;;;;4993312;28;20231;-89
2021/12/15 09:03:36;;;;;;;32.97;12.50;;;10.60;99.90;;;;;;4993311;28;20215;-88
2021/12/15 09:06:04;;;;;;;28.63;10.90;;;10.70;99.90;;;;;;4993783;28;20188;-86
2021/12/15 09:08:31;;;;;;;28.33;9.77;;;10.60;99.90;;;;;;5002509;28;20211;-87
2021/12/15 09:11:04;;;;;;;25.83;8.27;;;10.70;99.90;;;;;;4993142;28;20203;-87
2021/12/15 09:13:32;;;;;;;27.27;8.40;;;10.70;99.90;;;;;;4997381;28;20191;-89
2021/12/15 09:16:01;;;;;;;29.00;8.10;;;10.70;99.90;;;;;;5013132;28;20218;-94
2021/12/15 09:18:27;;;;;;;21.47;7.27;;;10.70;99.90;;;;;;5012845;28;20203;-89
2021/12/15 09:20:54;;;;;;;18.40;6.70;;;10.80;99.90;;;;;;5001210;28;20224;-90
2021/12/15 09:23:21;;;;;;;19.27;6.00;;;10.80;99.90;;;;;;4993290;28;20208;-87
2021/12/15 09:25:49;;;;;;;22.90;7.60;;;10.80;99.90;;;;;;4993495;28;20807;-88
2021/12/15 09:28:19;;;;;;;18.90;7.07;;;10.80;99.90;;;;;;4993426;28;20219;-88
2021/12/15 09:30:46;;;;;;;21.00;6.97;;;10.80;99.90;;;;;;5011245;28;20219;-88
2021/12/15 09:33:18;;;;;;;19.73;6.17;;;10.80;99.90;;;;;;5011999;28;20207;-89
2021/12/15 09:35:47;;;;;;;19.43;6.13;;;10.80;99.90;;;;;;5012607;28;20437;-88
2021/12/15 09:38:16;;;;;;;23.23;7.77;;;10.80;99.90;;;;;;5012553;28;20669;-86
2021/12/15 09:40:43;;;;;;;21.90;6.83;;;10.80;99.90;;;;;;5012004;28;20250;-88
2021/12/15 09:43:12;;;;;;;20.27;7.07;;;10.90;99.90;;;;;;5011365;28;20199;-88
2021/12/15 09:45:48;;;;;;;23.80;7.13;;;10.90;99.90;;;;;;5012727;28;20207;-87
2021/12/15 09:57:12;;;;;;;27.80;6.83;;;11.00;99.90;;;;;;5012697;28;20196;-88
2021/12/15 10:02:39;;;;;;;14.93;5.40;;;11.00;99.90;;;;;;4994457;28;20222;-89
2021/12/15 10:05:21;;;;;;;22.23;6.43;;;11.00;99.90;;;;;;5012467;28;20250;-90
2021/12/15 10:11:11;;;;;;;17.60;5.63;;;11.10;99.90;;;;;;4991974;28;20496;-88
2021/12/15 10:19:20;;;;;;;11.17;3.97;;;11.20;99.90;;;;;;5012564;28;20682;-89
2021/12/15 10:22:06;;;;;;;11.13;4.57;;;11.20;99.90;;;;;;4998418;28;20228;-88
2021/12/15 10:24:37;;;;;;;14.90;4.10;;;11.30;99.90;;;;;;4992574;28;20196;-90
2021/12/15 10:27:07;;;;;;;12.33;3.90;;;11.30;99.90;;;;;;4992910;28;20218;-95
2021/12/15 10:29:34;;;;;;;16.93;4.30;;;11.30;99.90;;;;;;4993180;28;20624;-93
2021/12/15 10:32:03;;;;;;;18.30;4.90;;;11.30;99.90;;;;;;4993841;28;20200;-94
2021/12/15 10:34:32;;;;;;;16.80;4.03;;;11.40;99.90;;;;;;5001538;28;20218;-93
2021/12/15 10:36:59;;;;;;;8.43;3.60;;;11.50;99.90;;;;;;5020767;28;20627;-92
2021/12/15 10:39:26;;;;;;;11.03;3.67;;;11.50;99.90;;;;;;5002895;28;20212;-88
2021/12/15 10:41:55;;;;;;;10.23;3.30;;;11.50;99.90;;;;;;4998584;28;20273;-88
2021/12/15 10:44:25;;;;;;;8.67;2.70;;;11.50;99.90;;;;;;4993470;28;20615;-90
2021/12/15 10:46:55;;;;;;;6.43;2.97;;;11.60;99.90;;;;;;4993022;28;20206;-91
2021/12/15 10:49:24;;;;;;;11.83;2.90;;;11.60;99.90;;;;;;4994635;28;20656;-88
2021/12/15 10:51:55;;;;;;;10.50;2.80;;;11.60;99.90;;;;;;4996428;28;20203;-87
2021/12/15 10:54:27;;;;;;;10.87;3.07;;;11.60;99.90;;;;;;5012491;28;20214;-91
2021/12/15 10:56:58;;;;;;;9.10;2.83;;;11.70;99.90;;;;;;5013679;28;20245;-90
2021/12/15 10:59:28;;;;;;;9.63;3.17;;;11.70;99.90;;;;;;4995422;28;20243;-90
2021/12/15 11:02:00;;;;;;;9.40;2.90;;;11.70;99.90;;;;;;4992314;28;20239;-87
2021/12/15 11:04:47;;;;;;;7.53;2.57;;;11.80;99.90;;;;;;4992114;28;20243;-87
2021/12/15 11:07:32;;;;;;;4.63;1.97;;;11.80;99.90;;;;;;4997017;28;20191;-90
2021/12/15 11:10:06;;;;;;;9.33;2.37;;;11.80;99.90;;;;;;4986220;28;20226;-90
2021/12/15 11:12:35;;;;;;;5.10;2.50;;;11.80;99.90;;;;;;5002892;28;20226;-88
2021/12/15 11:15:08;;;;;;;7.43;2.30;;;11.80;99.90;;;;;;4996143;28;20489;-86
2021/12/15 11:17:41;;;;;;;6.13;2.10;;;11.80;99.90;;;;;;4997536;28;20207;-89
2021/12/15 11:20:14;;;;;;;9.10;3.20;;;11.80;99.90;;;;;;5002241;28;20197;-89
2021/12/15 11:22:51;;;;;;;9.83;2.40;;;11.80;99.90;;;;;;5004454;28;20238;-88
2021/12/15 11:25:22;;;;;;;11.20;2.23;;;11.80;99.90;;;;;;5006593;28;20202;-87
2021/12/15 11:27:53;;;;;;;5.00;1.80;;;11.80;99.90;;;;;;5004942;28;20220;-89
2021/12/15 11:30:28;;;;;;;5.67;1.93;;;11.80;99.90;;;;;;4997481;28;20227;-85
2021/12/15 11:32:57;;;;;;;6.60;1.60;;;11.70;99.90;;;;;;4998353;28;20198;-87
2021/12/15 11:35:27;;;;;;;6.70;2.10;;;11.60;99.90;;;;;;5003209;28;20940;-86
2021/12/15 11:38:06;;;;;;;3.97;1.93;;;11.70;99.90;;;;;;5004745;28;20219;-88
2021/12/15 11:40:39;;;;;;;5.10;1.83;;;11.70;99.90;;;;;;4985120;28;20218;-87
2021/12/15 11:43:07;;;;;;;3.87;1.20;;;11.70;99.90;;;;;;5003923;28;20254;-86
2021/12/15 11:45:36;;;;;;;5.40;1.87;;;11.70;99.90;;;;;;4996709;28;20207;-87
2021/12/15 11:48:20;;;;;;;5.17;1.70;;;11.70;99.90;;;;;;4999722;28;20563;-85
2021/12/15 11:50:50;;;;;;;2.90;1.30;;;11.80;99.90;;;;;;5001115;28;20206;-86
2021/12/15 11:53:32;;;;;;;5.60;1.53;;;11.80;99.90;;;;;;4994795;28;20215;-85
2021/12/15 11:56:22;;;;;;;4.17;1.13;;;11.70;99.90;;;;;;4994770;28;20379;-86
2021/12/15 11:58:52;;;;;;;3.57;1.40;;;11.80;99.90;;;;;;4995315;28;20196;-86
2021/12/15 12:01:40;;;;;;;6.13;1.60;;;11.70;99.90;;;;;;5012562;28;20231;-86
2021/12/15 12:04:26;;;;;;;8.87;1.50;;;11.80;99.90;;;;;;5013754;28;20604;-84
2021/12/15 12:06:57;;;;;;;4.40;1.77;;;11.70;99.90;;;;;;5006204;28;20220;-84
2021/12/15 12:09:26;;;;;;;7.80;2.30;;;11.80;99.90;;;;;;4994891;28;20211;-89
2021/12/15 12:11:58;;;;;;;7.30;1.67;;;11.70;99.90;;;;;;4994774;28;20477;-90
2021/12/15 12:14:41;;;;;;;9.63;2.20;;;11.80;99.90;;;;;;4994177;28;20290;-91
2021/12/15 12:17:13;;;;;;;6.47;1.40;;;11.70;99.90;;;;;;5012288;28;20829;-86
2021/12/15 12:19:47;;;;;;;6.80;1.63;;;11.70;99.90;;;;;;5014536;28;20207;-88
2021/12/15 12:22:15;;;;;;;6.53;2.13;;;11.80;99.90;;;;;;5014425;28;20609;-92
2021/12/15 12:24:47;;;;;;;8.33;2.00;;;11.80;99.90;;;;;;5013955;28;20234;-89
2021/12/15 12:27:15;;;;;;;8.67;1.97;;;11.70;99.90;;;;;;5014436;28;20199;-91
2021/12/15 12:29:43;;;;;;;5.20;1.47;;;11.80;99.90;;;;;;5014477;28;20591;-86
2021/12/15 12:32:11;;;;;;;7.40;1.90;;;11.80;99.90;;;;;;4997248;28;20278;-91
2021/12/15 12:34:40;;;;;;;4.97;1.67;;;11.90;99.90;;;;;;4993946;28;20204;-88
2021/12/15 12:37:07;;;;;;;6.37;1.67;;;11.90;99.90;;;;;;5005583;28;20531;-88
2021/12/15 12:39:37;;;;;;;2.37;1.37;;;11.90;99.90;;;;;;5012325;28;20278;-89
2021/12/15 12:42:07;;;;;;;5.07;2.00;;;11.90;99.90;;;;;;5015962;28;21011;-88
2021/12/15 12:44:37;;;;;;;4.50;1.50;;;11.80;99.90;;;;;;5010135;28;20572;-86
2021/12/15 12:47:19;;;;;;;10.27;1.60;;;11.90;99.90;;;;;;5008051;28;20599;-85
2021/12/15 12:50:03;;;;;;;5.87;1.70;;;11.90;99.90;;;;;;4995873;28;20682;-84
2021/12/15 13:01:19;;;;;;;4.47;1.80;;;11.90;99.90;;;;;;5005264;28;20526;-83
2021/12/15 13:03:50;;;;;;;8.97;1.93;;;12.00;99.90;;;;;;4998664;28;20216;-86
2021/12/15 13:06:20;;;;;;;3.37;1.43;;;12.10;99.90;;;;;;4998950;28;20219;-91
2021/12/15 13:08:49;;;;;;;7.43;1.80;;;12.00;99.90;;;;;;5007705;28;20209;-83
2021/12/15 13:11:29;;;;;;;8.37;1.70;;;12.00;99.90;;;;;;5004371;28;20294;-93
2021/12/15 13:14:04;;;;;;;8.37;2.37;;;12.00;99.90;;;;;;4982882;28;20269;-84
2021/12/15 13:16:37;;;;;;;3.67;1.23;;;12.00;99.90;;;;;;4998372;28;20225;-87
2021/12/15 13:19:13;;;;;;;4.20;1.27;;;12.00;99.90;;;;;;5003327;28;20216;-88
2021/12/15 13:22:05;;;;;;;5.27;1.40;;;12.00;99.90;;;;;;4999619;28;20524;-87
2021/12/15 13:30:46;;;;;;;7.03;1.87;;;12.00;99.90;;;;;;4992731;28;20281;-81
2021/12/15 13:33:17;;;;;;;4.13;1.47;;;12.00;99.90;;;;;;5004308;28;20290;-87
2021/12/15 13:35:51;;;;;;;4.50;1.70;;;12.00;99.90;;;;;;5001235;28;20269;-87
2021/12/15 13:38:22;;;;;;;5.00;1.77;;;12.10;99.90;;;;;;4992754;28;20616;-87
2021/12/15 13:41:14;;;;;;;4.70;1.97;;;12.00;99.90;;;;;;4992102;28;20604;-89
2021/12/15 13:43:48;;;;;;;8.97;1.93;;;12.00;99.90;;;;;;4991682;28;20573;-85
2021/12/15 13:46:39;;;;;;;10.60;2.70;;;12.00;99.90;;;;;;5005920;28;20217;-86
2021/12/15 13:49:11;;;;;;;5.93;1.87;;;12.00;99.90;;;;;;5011922;28;20188;-85
2021/12/15 13:52:09;;;;;;;5.03;2.13;;;11.90;99.90;;;;;;5012015;28;20200;-86
2021/12/15 13:55:21;;;;;;;5.40;2.00;;;12.00;99.90;;;;;;4980372;28;20199;-84
2021/12/15 13:58:19;;;;;;;9.07;2.43;;;12.00;99.90;;;;;;5003828;28;20518;-86
2021/12/15 14:00:54;;;;;;;8.07;2.60;;;12.00;99.90;;;;;;5012374;28;20246;-87